Time;durP1;ratioP1;P1;durP2;ratioP2;P2;SDS_P1;SDS_P2;PMS_P1;PMS_P2;Temp;Humidity;BMP_temperature;BMP_pressure;BME280_temperature;BME280_humidity;BME280_pressure;Samples;Min_cycle;Max_cycle;Signal;HPM_P1;HPM_P2
2023/12/27 00:00:34;;;;;;;16.83;7.90;;;;;;;;;;5036125;28;20044;-66
2023/12/27 00:03:00;;;;;;;16.42;7.72;;;;;;;;;;5035915;28;20486;-66
2023/12/27 00:05:26;;;;;;;18.13;8.65;;;;;;;;;;5035805;28;20134;-66
2023/12/27 00:07:52;;;;;;;14.40;7.65;;;;;;;;;;5035460;28;20442;-66
2023/12/27 00:10:18;;;;;;;14.55;8.00;;;;;;;;;;5035797;28;20025;-66
2023/12/27 00:12:44;;;;;;;16.75;7.70;;;;;;;;;;5035570;28;20476;-66
2023/12/27 00:15:10;;;;;;;17.35;8.20;;;;;;;;;;5035728;28;20068;-67
2023/12/27 00:17:36;;;;;;;15.00;8.02;;;3.40;99.90;;;;;;5035740;28;20533;-67
2023/12/27 00:20:02;;;;;;;16.90;8.00;;;3.30;99.90;;;;;;5034995;28;20037;-66
2023/12/27 00:22:28;;;;;;;15.48;7.53;;;3.30;99.90;;;;;;5035584;28;20026;-66
2023/12/27 00:24:54;;;;;;;17.63;8.82;;;3.30;99.90;;;;;;5035108;28;20484;-66
2023/12/27 00:27:19;;;;;;;19.38;7.72;;;;;;;;;;5035489;28;20037;-67
2023/12/27 00:29:46;;;;;;;23.65;8.45;;;;;;;;;;5035350;28;20048;-67
2023/12/27 00:32:12;;;;;;;20.27;8.05;;;3.30;99.90;;;;;;5035385;28;20041;-67
2023/12/27 00:34:38;;;;;;;18.63;7.57;;;;;;;;;;5035408;28;20034;-66
2023/12/27 00:37:04;;;;;;;25.00;9.07;;;;;;;;;;5034873;28;20025;-66
2023/12/27 00:39:30;;;;;;;20.00;9.32;;;;;;;;;;5035305;28;20501;-67
2023/12/27 00:41:56;;;;;;;16.95;8.68;;;;;;;;;;5035034;28;20123;-66
2023/12/27 00:44:22;;;;;;;21.48;9.07;;;;;;;;;;5035049;28;20072;-67
2023/12/27 00:46:48;;;;;;;14.10;7.60;;;3.30;99.90;;;;;;5035188;28;20029;-67
2023/12/27 00:49:16;;;;;;;19.63;9.40;;;3.30;99.90;;;;;;5035086;28;20045;-66
2023/12/27 00:51:42;;;;;;;17.05;8.63;;;3.30;99.90;;;;;;5034502;28;20025;-66
2023/12/27 00:54:08;;;;;;;17.05;9.05;;;;;;;;;;5035008;28;20088;-66
2023/12/27 00:56:33;;;;;;;20.00;9.52;;;;;;;;;;5034935;28;20034;-66
2023/12/27 00:58:59;;;;;;;20.25;9.10;;;3.40;99.90;;;;;;5034962;28;20036;-66
2023/12/27 01:01:25;;;;;;;19.48;8.75;;;3.40;99.90;;;;;;5034888;28;20030;-66
2023/12/27 01:03:51;;;;;;;23.42;9.02;;;3.40;99.90;;;;;;5034872;28;20075;-66
2023/12/27 01:06:17;;;;;;;20.25;9.10;;;;;;;;;;5034872;28;20120;-66
2023/12/27 01:08:42;;;;;;;19.50;9.25;;;3.30;99.90;;;;;;5034678;28;20037;-67
2023/12/27 01:11:08;;;;;;;19.10;8.60;;;3.30;99.90;;;;;;5034746;28;20030;-66
2023/12/27 01:13:34;;;;;;;18.85;9.05;;;3.30;99.90;;;;;;5034550;28;20057;-66
2023/12/27 01:16:00;;;;;;;15.43;8.10;;;3.30;99.90;;;;;;5034363;28;20029;-66
2023/12/27 01:18:25;;;;;;;19.30;8.70;;;3.30;99.90;;;;;;5034242;28;20120;-66
2023/12/27 01:20:51;;;;;;;16.70;7.88;;;3.20;99.90;;;;;;5033827;28;20076;-66
2023/12/27 01:23:17;;;;;;;15.63;8.65;;;3.10;99.90;;;;;;5034536;28;20112;-66
2023/12/27 01:25:42;;;;;;;18.65;9.23;;;3.10;99.90;;;;;;5034028;28;20033;-67
2023/12/27 01:28:08;;;;;;;19.45;9.65;;;3.10;99.90;;;;;;5034563;28;20112;-66
2023/12/27 01:30:33;;;;;;;18.70;9.50;;;3.20;99.90;;;;;;5033988;28;20030;-66
2023/12/27 01:32:59;;;;;;;22.00;9.77;;;3.00;99.90;;;;;;5033933;28;20045;-66
2023/12/27 01:35:25;;;;;;;21.38;9.68;;;3.00;99.90;;;;;;5033817;28;20044;-66
2023/12/27 01:37:51;;;;;;;14.07;8.52;;;2.90;99.90;;;;;;5034254;28;20475;-66
2023/12/27 01:40:16;;;;;;;18.38;9.10;;;2.90;99.90;;;;;;5033704;28;20018;-66
2023/12/27 01:42:42;;;;;;;22.27;10.45;;;;;;;;;;5034112;28;20025;-66
2023/12/27 01:45:08;;;;;;;20.90;10.23;;;2.80;99.90;;;;;;5034039;28;20048;-66
2023/12/27 01:47:36;;;;;;;22.40;9.00;;;2.70;99.90;;;;;;5033957;28;20033;-66
2023/12/27 01:50:03;;;;;;;17.40;9.45;;;2.80;99.90;;;;;;5033957;28;20041;-66
2023/12/27 01:52:28;;;;;;;15.23;8.07;;;2.70;99.90;;;;;;5033658;28;20030;-67
2023/12/27 01:54:54;;;;;;;17.73;8.98;;;2.70;99.90;;;;;;5033483;28;20497;-66
2023/12/27 01:57:20;;;;;;;20.98;9.90;;;2.60;99.90;;;;;;5033728;28;20029;-67
2023/12/27 01:59:46;;;;;;;20.00;10.73;;;;;;;;;;5033246;28;20048;-66
2023/12/27 02:02:13;;;;;;;19.92;10.50;;;2.60;99.90;;;;;;5033863;28;20060;-67
2023/12/27 02:04:39;;;;;;;18.55;10.98;;;2.50;99.90;;;;;;5033175;28;20033;-66
2023/12/27 02:07:05;;;;;;;18.27;10.40;;;2.50;99.90;;;;;;5033639;28;20041;-66
2023/12/27 02:09:31;;;;;;;26.85;11.35;;;2.40;99.90;;;;;;5033598;28;20387;-66
2023/12/27 02:11:57;;;;;;;27.25;12.25;;;2.40;99.90;;;;;;5033330;28;20487;-66
2023/12/27 02:14:23;;;;;;;26.23;11.63;;;;;;;;;;5033266;28;20032;-66
2023/12/27 02:16:49;;;;;;;26.92;11.75;;;2.70;99.90;;;;;;5033564;28;20017;-66
2023/12/27 02:19:21;;;;;;;22.00;11.07;;;2.70;99.90;;;;;;5033525;28;20079;-66
2023/12/27 02:21:49;;;;;;;22.90;11.32;;;2.70;99.90;;;;;;5033762;28;20050;-66
2023/12/27 02:24:18;;;;;;;21.77;10.48;;;2.60;99.90;;;;;;5033533;28;20049;-66
2023/12/27 02:26:44;;;;;;;25.70;11.45;;;2.60;99.90;;;;;;5033328;28;20080;-66
2023/12/27 02:29:09;;;;;;;30.48;13.07;;;2.60;99.90;;;;;;5033377;28;20036;-66
2023/12/27 02:31:35;;;;;;;28.63;11.82;;;2.60;99.90;;;;;;5033235;28;20425;-66
2023/12/27 02:34:00;;;;;;;21.95;10.82;;;2.60;99.90;;;;;;5033148;28;20063;-66
2023/12/27 02:36:26;;;;;;;20.55;11.07;;;2.50;99.90;;;;;;5033333;28;20033;-66
2023/12/27 02:38:52;;;;;;;22.80;10.57;;;2.50;99.90;;;;;;5033364;28;20132;-66
2023/12/27 02:41:17;;;;;;;26.60;11.45;;;2.50;99.90;;;;;;5033253;28;20141;-66
2023/12/27 02:43:42;;;;;;;21.75;10.52;;;2.40;99.90;;;;;;5033214;28;20368;-66
2023/12/27 02:46:08;;;;;;;19.58;10.48;;;2.60;99.90;;;;;;5033003;28;20475;-66
2023/12/27 02:48:34;;;;;;;22.45;11.30;;;2.30;99.90;;;;;;5033143;28;20026;-66
2023/12/27 02:50:59;;;;;;;21.33;11.20;;;2.40;99.90;;;;;;5033102;28;20036;-66
2023/12/27 02:53:25;;;;;;;23.13;11.65;;;2.40;99.90;;;;;;5032848;28;20120;-66
2023/12/27 02:55:50;;;;;;;21.25;11.70;;;2.40;99.90;;;;;;5032956;28;20025;-66
2023/12/27 02:58:16;;;;;;;22.90;10.95;;;2.40;99.90;;;;;;5033138;28;20033;-66
2023/12/27 03:00:46;;;;;;;22.52;11.48;;;2.40;99.90;;;;;;5033177;28;20448;-66
2023/12/27 03:03:12;;;;;;;26.30;12.50;;;2.50;99.90;;;;;;5032881;28;20025;-66
2023/12/27 03:05:38;;;;;;;22.05;12.65;;;2.50;99.90;;;;;;5033054;28;20033;-66
2023/12/27 03:08:03;;;;;;;28.10;13.32;;;2.50;99.90;;;;;;5032926;28;20037;-66
2023/12/27 03:10:29;;;;;;;25.63;12.98;;;2.70;99.90;;;;;;5032997;28;20403;-66
2023/12/27 03:12:55;;;;;;;29.23;14.07;;;2.70;99.90;;;;;;5032720;28;20036;-66
2023/12/27 03:15:20;;;;;;;23.05;12.95;;;2.60;99.90;;;;;;5034265;28;20104;-66
2023/12/27 03:17:46;;;;;;;22.92;13.80;;;2.70;99.90;;;;;;5036928;28;20030;-66
2023/12/27 03:20:11;;;;;;;29.02;13.75;;;2.70;99.90;;;;;;5036659;28;20052;-66
2023/12/27 03:22:37;;;;;;;27.58;14.07;;;2.70;99.90;;;;;;5036399;28;20033;-66
2023/12/27 03:25:03;;;;;;;25.10;13.55;;;2.80;99.90;;;;;;5036483;28;20107;-66
2023/12/27 03:27:29;;;;;;;28.30;13.15;;;2.80;99.90;;;;;;5036680;28;20032;-66
2023/12/27 03:29:54;;;;;;;26.95;12.18;;;2.90;99.90;;;;;;5036180;28;20487;-66
2023/12/27 03:32:20;;;;;;;28.52;12.30;;;3.00;99.90;;;;;;5036321;28;20500;-66
2023/12/27 03:34:45;;;;;;;32.15;13.40;;;3.00;99.90;;;;;;5036447;28;20025;-66
2023/12/27 03:37:12;;;;;;;25.75;11.23;;;3.10;99.90;;;;;;5036625;28;20044;-66
2023/12/27 03:39:38;;;;;;;24.60;12.70;;;3.10;99.90;;;;;;5036464;28;20022;-66
2023/12/27 03:42:03;;;;;;;26.88;13.18;;;3.20;99.90;;;;;;5036336;28;20390;-66
2023/12/27 03:44:29;;;;;;;29.02;12.68;;;3.20;99.90;;;;;;5036244;28;20031;-67
2023/12/27 03:46:55;;;;;;;20.75;10.48;;;3.30;99.90;;;;;;5035870;28;20049;-67
2023/12/27 03:49:20;;;;;;;20.80;10.88;;;3.40;99.90;;;;;;5036144;28;20076;-66
2023/12/27 03:51:46;;;;;;;30.48;13.02;;;3.40;99.90;;;;;;5035982;28;20471;-66
2023/12/27 03:54:11;;;;;;;20.95;10.75;;;3.40;99.90;;;;;;5036041;28;20021;-66
2023/12/27 03:56:37;;;;;;;17.17;9.82;;;3.40;99.90;;;;;;5036393;28;20024;-66
2023/12/27 03:59:05;;;;;;;26.98;11.93;;;3.50;99.90;;;;;;5035631;28;20043;-66
2023/12/27 04:01:31;;;;;;;27.85;12.88;;;3.40;99.90;;;;;;5035795;28;20112;-66
2023/12/27 04:03:56;;;;;;;28.58;11.15;;;3.50;99.90;;;;;;5036026;28;20064;-66
2023/12/27 04:06:22;;;;;;;26.85;12.30;;;3.60;99.90;;;;;;5035852;28;20022;-66
2023/12/27 04:08:48;;;;;;;29.85;12.95;;;3.50;99.90;;;;;;5035959;28;20025;-66
2023/12/27 04:11:14;;;;;;;23.92;11.27;;;3.40;99.90;;;;;;5035719;28;20037;-66
2023/12/27 04:13:40;;;;;;;27.45;12.05;;;3.40;99.90;;;;;;5035768;28;20028;-66
2023/12/27 04:16:06;;;;;;;25.50;11.85;;;3.40;99.90;;;;;;5035744;28;20494;-66
2023/12/27 04:18:31;;;;;;;28.88;12.00;;;3.40;99.90;;;;;;5035480;28;20025;-66
2023/12/27 04:20:57;;;;;;;24.67;11.70;;;3.40;99.90;;;;;;5035399;28;20053;-66
2023/12/27 04:23:22;;;;;;;24.65;11.98;;;3.40;99.90;;;;;;5035474;28;20029;-66
2023/12/27 04:25:48;;;;;;;30.75;12.52;;;3.30;99.90;;;;;;5035514;28;20034;-66
2023/12/27 04:28:13;;;;;;;29.67;12.90;;;3.30;99.90;;;;;;5034944;28;20025;-66
2023/12/27 04:30:39;;;;;;;29.90;13.15;;;3.20;99.90;;;;;;5035440;28;20033;-66
2023/12/27 04:33:04;;;;;;;21.00;12.48;;;3.20;99.90;;;;;;5035191;28;20044;-66
2023/12/27 04:35:30;;;;;;;25.98;11.88;;;3.20;99.90;;;;;;5034850;28;20025;-66
2023/12/27 04:37:57;;;;;;;19.33;11.10;;;3.20;99.90;;;;;;5035193;28;20060;-66
2023/12/27 04:40:22;;;;;;;24.02;10.85;;;3.20;99.90;;;;;;5035266;28;20025;-67
2023/12/27 04:42:48;;;;;;;27.65;11.68;;;3.30;99.90;;;;;;5035153;28;20101;-66
2023/12/27 04:45:13;;;;;;;17.30;10.02;;;3.10;99.90;;;;;;5035280;28;20427;-67
2023/12/27 04:47:39;;;;;;;20.13;10.23;;;3.10;99.90;;;;;;5035312;28;20525;-66
2023/12/27 04:50:05;;;;;;;23.95;10.95;;;3.10;99.90;;;;;;5035133;28;20022;-66
2023/12/27 04:52:31;;;;;;;26.48;11.65;;;3.10;99.90;;;;;;5034839;28;20065;-67
2023/12/27 04:54:56;;;;;;;23.70;11.40;;;3.20;99.90;;;;;;5034815;28;20060;-66
2023/12/27 04:57:22;;;;;;;27.25;11.13;;;3.20;99.90;;;;;;5034989;28;20021;-66
2023/12/27 04:59:47;;;;;;;23.25;11.45;;;3.10;99.90;;;;;;5034654;28;20033;-66
2023/12/27 05:02:13;;;;;;;27.42;11.65;;;3.10;99.90;;;;;;5034812;28;20071;-66
2023/12/27 05:04:38;;;;;;;23.55;11.23;;;3.10;99.90;;;;;;5034952;28;20033;-66
2023/12/27 05:07:04;;;;;;;25.02;11.10;;;3.10;99.90;;;;;;5034659;28;20042;-66
2023/12/27 05:09:29;;;;;;;23.58;11.43;;;3.00;99.90;;;;;;5034540;28;20041;-66
2023/12/27 05:11:55;;;;;;;34.75;12.73;;;3.10;99.90;;;;;;5034554;28;20032;-66
2023/12/27 05:14:20;;;;;;;24.85;12.00;;;3.10;99.90;;;;;;5034684;28;20029;-66
2023/12/27 05:16:46;;;;;;;28.58;12.80;;;3.10;99.90;;;;;;5034426;28;20484;-66
2023/12/27 05:19:12;;;;;;;29.77;12.65;;;3.30;99.90;;;;;;5034440;28;20041;-66
2023/12/27 05:21:37;;;;;;;35.38;12.68;;;3.30;99.90;;;;;;5033804;28;20045;-66
2023/12/27 05:24:03;;;;;;;24.27;12.25;;;3.30;99.90;;;;;;5034488;28;20128;-66
2023/12/27 05:26:29;;;;;;;28.17;12.98;;;3.40;99.90;;;;;;5034315;28;20072;-66
2023/12/27 05:28:54;;;;;;;47.90;14.73;;;3.40;99.90;;;;;;5033964;28;20026;-66
2023/12/27 05:31:20;;;;;;;38.40;13.23;;;3.50;99.90;;;;;;5034205;28;20037;-66
2023/12/27 05:33:45;;;;;;;38.08;13.32;;;3.50;99.90;;;;;;5034270;28;20078;-66
2023/12/27 05:36:11;;;;;;;44.58;15.13;;;3.50;99.90;;;;;;5034213;28;20026;-66
2023/12/27 05:38:36;;;;;;;34.58;14.60;;;3.70;99.90;;;;;;5033108;28;20025;-66
2023/12/27 05:41:03;;;;;;;34.30;14.18;;;3.90;99.90;;;;;;5033654;28;20115;-66
2023/12/27 05:43:29;;;;;;;37.20;13.95;;;3.90;99.90;;;;;;5033920;28;20029;-66
2023/12/27 05:45:54;;;;;;;41.70;14.98;;;3.90;99.90;;;;;;5034072;28;20504;-66
2023/12/27 05:48:20;;;;;;;41.25;14.77;;;3.80;99.90;;;;;;5033589;28;20045;-66
2023/12/27 05:50:46;;;;;;;38.03;15.15;;;3.80;99.90;;;;;;5033955;28;20091;-66
2023/12/27 05:53:11;;;;;;;35.75;16.00;;;3.90;99.90;;;;;;5033846;28;20506;-66
2023/12/27 05:55:37;;;;;;;44.40;16.02;;;3.90;99.90;;;;;;5033356;28;20021;-66
2023/12/27 05:58:03;;;;;;;52.10;16.10;;;3.90;99.90;;;;;;5033791;28;20471;-67
2023/12/27 06:00:28;;;;;;;42.33;14.77;;;4.00;99.90;;;;;;5033814;28;20096;-67
2023/12/27 06:02:54;;;;;;;39.53;15.93;;;3.90;99.90;;;;;;5033817;28;20394;-66
2023/12/27 06:05:22;;;;;;;46.67;16.92;;;3.90;99.90;;;;;;5033290;28;20568;-66
2023/12/27 06:07:47;;;;;;;44.80;15.65;;;3.90;99.90;;;;;;5033768;28;20438;-66
2023/12/27 06:10:13;;;;;;;44.95;17.40;;;4.00;99.90;;;;;;5033512;28;20033;-66
2023/12/27 06:12:38;;;;;;;36.70;15.50;;;4.00;99.90;;;;;;5033372;28;20061;-66
2023/12/27 06:15:04;;;;;;;39.10;15.57;;;4.00;99.90;;;;;;5033510;28;20414;-66
2023/12/27 06:17:30;;;;;;;48.53;17.00;;;4.00;99.90;;;;;;5033551;28;20084;-66
2023/12/27 06:19:55;;;;;;;49.08;16.48;;;4.10;99.90;;;;;;5033194;28;20026;-67
2023/12/27 06:22:21;;;;;;;37.95;17.58;;;4.20;99.90;;;;;;5033141;28;20041;-67
2023/12/27 06:24:47;;;;;;;40.33;16.67;;;4.20;99.90;;;;;;5033531;28;20051;-67
2023/12/27 06:27:12;;;;;;;49.13;18.73;;;4.20;99.90;;;;;;5033154;28;20021;-66
2023/12/27 06:29:39;;;;;;;43.15;18.33;;;4.30;99.90;;;;;;5033398;28;20033;-66
2023/12/27 06:32:05;;;;;;;46.08;17.95;;;4.20;99.90;;;;;;5033253;28;20029;-66
2023/12/27 06:34:30;;;;;;;41.38;17.67;;;4.30;99.90;;;;;;5032891;28;20410;-66
2023/12/27 06:36:56;;;;;;;47.95;19.08;;;4.30;99.90;;;;;;5033149;28;20018;-66
2023/12/27 06:39:21;;;;;;;48.33;18.60;;;4.30;99.90;;;;;;5033337;28;20033;-67
2023/12/27 06:41:48;;;;;;;45.45;18.80;;;4.40;99.90;;;;;;5033345;28;20033;-67
2023/12/27 06:44:14;;;;;;;41.08;17.85;;;4.40;99.90;;;;;;5032882;28;20430;-67
2023/12/27 06:46:39;;;;;;;54.95;18.75;;;4.30;99.90;;;;;;5033495;28;20068;-66
2023/12/27 06:49:05;;;;;;;49.75;19.63;;;4.40;99.90;;;;;;5032939;28;20033;-67
2023/12/27 06:51:30;;;;;;;44.85;18.98;;;4.40;99.90;;;;;;5036273;28;20071;-67
2023/12/27 06:53:56;;;;;;;47.33;18.45;;;4.30;99.90;;;;;;5036978;28;20021;-66
2023/12/27 06:56:22;;;;;;;54.38;19.40;;;4.40;99.90;;;;;;5036783;28;20029;-66
2023/12/27 06:58:47;;;;;;;42.42;17.80;;;4.40;99.90;;;;;;5037118;28;20104;-67
2023/12/27 07:01:14;;;;;;;49.00;18.77;;;4.40;99.90;;;;;;5037183;28;20028;-67
2023/12/27 07:03:40;;;;;;;44.50;19.17;;;4.40;99.90;;;;;;5037068;28;20030;-67
2023/12/27 07:06:06;;;;;;;43.92;17.38;;;4.40;99.90;;;;;;5037039;28;20051;-67
2023/12/27 07:08:32;;;;;;;43.58;17.65;;;4.50;99.90;;;;;;5037004;28;20022;-67
2023/12/27 07:10:57;;;;;;;47.70;18.33;;;4.40;99.90;;;;;;5036978;28;20026;-67
2023/12/27 07:13:23;;;;;;;46.67;16.92;;;4.50;99.90;;;;;;5036631;28;20036;-67
2023/12/27 07:15:48;;;;;;;45.47;17.65;;;4.50;99.90;;;;;;5036852;28;20521;-67
2023/12/27 07:18:14;;;;;;;45.17;16.30;;;4.50;99.90;;;;;;5036873;28;20552;-67
2023/12/27 07:20:39;;;;;;;39.58;17.08;;;4.50;99.90;;;;;;5036505;28;20053;-67
2023/12/27 07:23:05;;;;;;;41.15;17.52;;;4.60;99.90;;;;;;5036644;28;20113;-67
2023/12/27 07:25:30;;;;;;;46.33;17.35;;;4.50;99.90;;;;;;5036566;28;20025;-67
2023/12/27 07:27:56;;;;;;;45.33;16.80;;;4.60;99.90;;;;;;5036476;28;20033;-67
2023/12/27 07:30:22;;;;;;;44.55;17.65;;;4.60;99.90;;;;;;5036638;28;20029;-67
2023/12/27 07:32:47;;;;;;;46.42;17.27;;;4.60;99.90;;;;;;5036364;28;20049;-67
2023/12/27 07:35:13;;;;;;;48.38;18.60;;;4.60;99.90;;;;;;5036527;28;20395;-67
2023/12/27 07:37:40;;;;;;;37.75;17.02;;;4.60;99.90;;;;;;5036165;28;20025;-67
2023/12/27 07:40:06;;;;;;;53.53;17.13;;;4.60;99.90;;;;;;5036170;28;20080;-67
2023/12/27 07:42:32;;;;;;;49.95;18.52;;;4.70;99.90;;;;;;5036302;28;20377;-68
2023/12/27 07:44:57;;;;;;;48.75;19.58;;;4.70;99.90;;;;;;5036316;28;20043;-67
2023/12/27 07:47:23;;;;;;;44.80;16.52;;;4.70;99.90;;;;;;5035870;28;20022;-67
2023/12/27 07:49:48;;;;;;;52.13;17.52;;;4.80;99.90;;;;;;5036323;28;20442;-67
2023/12/27 07:52:14;;;;;;;46.38;17.90;;;4.80;99.90;;;;;;5036049;28;20036;-67
2023/12/27 07:54:39;;;;;;;52.03;18.60;;;4.80;99.90;;;;;;5036076;28;20053;-67
2023/12/27 07:57:05;;;;;;;46.45;18.65;;;4.80;99.90;;;;;;5036126;28;20026;-67
2023/12/27 07:59:31;;;;;;;52.15;18.92;;;4.90;99.90;;;;;;5035996;28;20097;-67
2023/12/27 08:01:58;;;;;;;45.40;16.52;;;4.90;99.90;;;;;;5034411;28;20067;-67
2023/12/27 08:04:23;;;;;;;47.78;16.92;;;5.00;99.90;;;;;;5035846;28;20029;-67
2023/12/27 08:06:49;;;;;;;55.00;18.95;;;4.90;99.90;;;;;;5035963;28;20513;-67
2023/12/27 08:09:15;;;;;;;59.30;16.90;;;5.00;99.90;;;;;;5035961;28;20030;-67
2023/12/27 08:11:41;;;;;;;46.92;17.25;;;5.00;99.90;;;;;;5035766;28;20380;-68
2023/12/27 08:14:06;;;;;;;38.58;16.50;;;5.10;99.90;;;;;;5035761;28;20096;-67
2023/12/27 08:16:32;;;;;;;46.60;16.95;;;5.10;99.90;;;;;;5035544;28;20072;-67
2023/12/27 08:18:57;;;;;;;45.83;16.52;;;5.20;99.90;;;;;;5035728;28;20475;-67
2023/12/27 08:21:23;;;;;;;43.75;17.55;;;5.20;99.90;;;;;;5035385;28;20050;-67
2023/12/27 08:23:49;;;;;;;42.05;16.35;;;5.30;99.90;;;;;;5035684;28;20026;-67
2023/12/27 08:26:14;;;;;;;35.38;15.02;;;5.30;99.90;;;;;;5035674;28;20032;-67
2023/12/27 08:28:40;;;;;;;46.78;16.40;;;5.30;99.90;;;;;;5035466;28;20036;-67
2023/12/27 08:31:06;;;;;;;37.28;15.50;;;5.30;99.90;;;;;;5035427;28;20026;-67
2023/12/27 08:33:35;;;;;;;42.38;16.08;;;5.60;99.90;;;;;;5035122;28;20029;-67
2023/12/27 08:36:01;;;;;;;34.42;14.40;;;5.50;99.90;;;;;;5035371;28;20347;-67
2023/12/27 08:38:27;;;;;;;40.85;16.15;;;5.40;99.90;;;;;;5035016;28;20523;-67
2023/12/27 08:40:53;;;;;;;37.58;16.13;;;5.50;99.90;;;;;;5034649;28;20391;-67
2023/12/27 08:43:19;;;;;;;32.72;14.73;;;5.40;99.90;;;;;;5035242;28;20030;-68
2023/12/27 08:45:46;;;;;;;40.78;14.90;;;5.60;99.90;;;;;;5035285;28;20040;-67
2023/12/27 08:48:12;;;;;;;36.13;15.18;;;5.60;99.90;;;;;;5035023;28;20022;-67
2023/12/27 08:50:38;;;;;;;34.40;13.90;;;5.60;99.90;;;;;;5034915;28;20033;-67
2023/12/27 08:53:04;;;;;;;36.97;14.60;;;5.60;99.90;;;;;;5034680;28;20430;-67
2023/12/27 08:55:30;;;;;;;41.63;14.43;;;5.70;99.90;;;;;;5034902;28;20526;-68
2023/12/27 08:57:55;;;;;;;39.05;14.13;;;5.70;99.90;;;;;;5034903;28;20032;-67
2023/12/27 09:00:21;;;;;;;35.03;13.68;;;5.80;99.90;;;;;;5034377;28;20117;-67
2023/12/27 09:02:47;;;;;;;28.90;12.98;;;5.80;99.90;;;;;;5035013;28;20068;-68
2023/12/27 09:05:12;;;;;;;36.85;14.00;;;5.70;99.90;;;;;;5034772;28;20060;-67
2023/12/27 09:07:38;;;;;;;31.50;12.60;;;5.80;99.90;;;;;;5034673;28;20030;-67
2023/12/27 09:10:04;;;;;;;33.45;12.52;;;5.90;99.90;;;;;;5034234;28;20060;-67
2023/12/27 09:12:30;;;;;;;31.30;13.15;;;5.80;99.90;;;;;;5034228;28;20065;-67
2023/12/27 09:14:55;;;;;;;37.30;14.63;;;5.90;99.90;;;;;;5034617;28;20452;-67
2023/12/27 09:17:21;;;;;;;27.92;13.00;;;5.90;99.90;;;;;;5034568;28;20021;-67
2023/12/27 09:19:47;;;;;;;32.80;12.95;;;;;;;;;;5034360;28;20029;-66
2023/12/27 09:22:12;;;;;;;36.45;13.40;;;5.90;99.90;;;;;;5034628;28;20123;-66
2023/12/27 09:24:41;;;;;;;30.90;13.68;;;;;;;;;;5033997;28;20029;-66
2023/12/27 09:27:06;;;;;;;34.17;13.52;;;5.90;99.90;;;;;;5034324;28;20025;-66
2023/12/27 09:29:32;;;;;;;33.85;12.93;;;6.00;99.90;;;;;;5034327;28;20029;-66
2023/12/27 09:31:58;;;;;;;27.05;12.68;;;;;;;;;;5034117;28;20021;-66
2023/12/27 09:34:24;;;;;;;31.08;12.40;;;6.00;99.90;;;;;;5034242;28;20060;-66
2023/12/27 09:36:49;;;;;;;32.05;12.77;;;6.00;99.90;;;;;;5033901;28;20029;-67
2023/12/27 09:39:15;;;;;;;33.28;12.45;;;6.10;99.90;;;;;;5033811;28;20121;-66
2023/12/27 09:41:41;;;;;;;25.23;12.65;;;6.10;99.90;;;;;;5033924;28;20029;-65
2023/12/27 09:44:10;;;;;;;36.58;13.80;;;6.00;99.90;;;;;;5034100;28;20052;-65
2023/12/27 09:46:38;;;;;;;32.45;13.13;;;6.10;99.90;;;;;;5033797;28;20033;-65
2023/12/27 09:49:07;;;;;;;32.58;13.10;;;6.10;99.90;;;;;;5033961;28;20502;-65
2023/12/27 09:51:33;;;;;;;33.78;13.48;;;6.10;99.90;;;;;;5033878;28;20074;-66
2023/12/27 09:53:58;;;;;;;30.17;12.63;;;6.10;99.90;;;;;;5033994;28;20427;-66
2023/12/27 09:56:25;;;;;;;35.28;13.73;;;6.20;99.90;;;;;;5033960;28;20029;-66
2023/12/27 09:58:59;;;;;;;27.75;13.20;;;6.10;99.90;;;;;;5033907;28;20036;-67
2023/12/27 10:01:28;;;;;;;31.67;14.07;;;6.30;99.90;;;;;;5033715;28;20030;-66
2023/12/27 10:04:15;;;;;;;35.63;14.05;;;6.40;99.90;;;;;;5033357;28;20034;-66
2023/12/27 10:06:44;;;;;;;30.40;14.95;;;6.40;99.90;;;;;;5033642;28;20026;-66
2023/12/27 10:09:11;;;;;;;30.60;13.57;;;6.50;99.90;;;;;;5033657;28;20079;-66
2023/12/27 10:11:40;;;;;;;32.80;14.07;;;6.50;99.90;;;;;;5033578;28;20028;-66
2023/12/27 10:14:07;;;;;;;33.00;13.43;;;6.50;99.90;;;;;;5033605;28;20479;-66
2023/12/27 10:16:32;;;;;;;37.42;14.35;;;6.50;99.90;;;;;;5033605;28;20053;-67
2023/12/27 10:19:00;;;;;;;33.38;13.85;;;6.60;99.90;;;;;;5033582;28;20491;-66
2023/12/27 10:21:25;;;;;;;36.13;14.85;;;6.80;99.90;;;;;;5033200;28;20033;-66
2023/12/27 10:23:51;;;;;;;31.20;13.25;;;6.70;99.90;;;;;;5033097;28;20537;-67
2023/12/27 10:26:19;;;;;;;32.80;14.35;;;6.80;99.90;;;;;;5032794;28;20104;-66
2023/12/27 10:28:45;;;;;;;31.05;13.73;;;6.90;99.90;;;;;;5033412;28;20030;-66
2023/12/27 10:31:10;;;;;;;31.05;13.18;;;7.00;99.90;;;;;;5033193;28;20079;-66
2023/12/27 10:33:40;;;;;;;36.83;13.23;;;7.00;99.90;;;;;;5032872;28;20121;-66
2023/12/27 10:36:09;;;;;;;27.70;14.00;;;;;;;;;;5033398;28;20096;-66
2023/12/27 10:38:37;;;;;;;29.48;13.35;;;;;;;;;;5033188;28;20033;-66
2023/12/27 10:41:04;;;;;;;26.33;13.30;;;7.20;99.90;;;;;;5032530;28;20026;-66
2023/12/27 10:43:32;;;;;;;37.58;14.93;;;7.30;99.90;;;;;;5033268;28;20029;-66
2023/12/27 10:45:58;;;;;;;27.48;13.00;;;7.40;99.90;;;;;;5033279;28;20398;-66
2023/12/27 10:48:26;;;;;;;28.92;13.32;;;7.50;99.90;;;;;;5032813;28;20036;-66
2023/12/27 10:50:52;;;;;;;29.92;13.05;;;7.50;99.90;;;;;;5033205;28;20171;-66
2023/12/27 10:53:20;;;;;;;31.35;13.95;;;7.60;99.90;;;;;;5032988;28;20495;-67
2023/12/27 10:55:48;;;;;;;32.38;13.90;;;7.50;99.90;;;;;;5033277;28;20025;-67
2023/12/27 10:58:21;;;;;;;29.98;13.05;;;7.60;99.90;;;;;;5033324;28;20113;-66
2023/12/27 11:00:47;;;;;;;23.35;12.15;;;7.60;99.90;;;;;;5033146;28;20030;-66
2023/12/27 11:03:13;;;;;;;31.55;13.40;;;7.50;99.90;;;;;;5033058;28;20082;-66
2023/12/27 11:05:40;;;;;;;27.13;13.50;;;7.60;99.90;;;;;;5032993;28;20025;-66
2023/12/27 11:08:06;;;;;;;34.88;14.32;;;7.70;99.90;;;;;;5032991;28;20033;-66
2023/12/27 11:10:35;;;;;;;24.80;12.48;;;7.70;99.90;;;;;;5032996;28;20057;-66
2023/12/27 11:13:02;;;;;;;29.83;12.32;;;7.70;99.90;;;;;;5032710;28;20038;-67
2023/12/27 11:15:30;;;;;;;22.98;12.25;;;7.70;99.90;;;;;;5032483;28;20026;-66
2023/12/27 11:17:57;;;;;;;25.65;11.73;;;7.80;99.90;;;;;;5032728;28;20021;-66
2023/12/27 11:20:25;;;;;;;26.52;11.60;;;7.90;99.90;;;;;;5032732;28;20044;-66
2023/12/27 11:22:50;;;;;;;24.55;11.10;;;7.90;99.90;;;;;;5032788;28;20036;-66
2023/12/27 11:25:16;;;;;;;22.23;11.45;;;8.10;99.90;;;;;;5032970;28;20457;-66
2023/12/27 11:27:42;;;;;;;19.90;10.80;;;8.10;99.90;;;;;;5032744;28;20387;-67
2023/12/27 11:30:12;;;;;;;23.13;11.05;;;8.10;99.90;;;;;;5032594;28;20438;-66
2023/12/27 11:32:40;;;;;;;27.77;11.23;;;8.30;99.90;;;;;;5032439;28;20065;-66
2023/12/27 11:35:09;;;;;;;24.90;10.98;;;8.20;99.90;;;;;;5032803;28;20054;-67
2023/12/27 11:37:35;;;;;;;19.58;10.48;;;8.40;99.90;;;;;;5035876;28;20371;-66
2023/12/27 11:40:01;;;;;;;20.60;10.65;;;8.30;99.90;;;;;;5036437;28;20037;-66
2023/12/27 11:42:26;;;;;;;21.88;9.93;;;8.40;99.90;;;;;;5036458;28;20029;-67
2023/12/27 11:44:54;;;;;;;23.70;10.32;;;8.40;99.90;;;;;;5036204;28;20057;-67
2023/12/27 11:47:20;;;;;;;22.02;10.02;;;8.40;99.90;;;;;;5036090;28;20394;-69
2023/12/27 11:50:07;;;;;;;17.95;9.77;;;;;;;;;;5036173;28;20364;-67
2023/12/27 11:52:40;;;;;;;16.95;8.88;;;8.40;99.90;;;;;;5035830;28;20510;-67
2023/12/27 11:55:15;;;;;;;21.77;9.25;;;8.50;99.90;;;;;;5035693;28;20121;-67
2023/12/27 11:57:41;;;;;;;15.00;8.02;;;8.40;99.90;;;;;;5036025;28;20509;-66
2023/12/27 12:00:08;;;;;;;17.10;7.68;;;8.30;99.90;;;;;;5035879;28;20479;-66
2023/12/27 12:02:35;;;;;;;13.80;7.22;;;8.50;99.90;;;;;;5035832;28;20029;-66
2023/12/27 12:05:28;;;;;;;11.73;6.70;;;8.50;99.90;;;;;;5036017;28;20561;-66
2023/12/27 12:08:13;;;;;;;14.05;6.45;;;8.70;99.90;;;;;;5035822;28;20491;-66
2023/12/27 12:10:40;;;;;;;9.32;5.07;;;8.60;99.90;;;;;;5035851;28;20116;-66
2023/12/27 12:13:08;;;;;;;7.88;4.53;;;;;;;;;;5035301;28;20091;-66
2023/12/27 12:15:33;;;;;;;8.80;4.72;;;8.70;99.90;;;;;;5035800;28;20060;-66
2023/12/27 12:18:00;;;;;;;10.10;6.78;;;;;;;;;;5035761;28;20060;-66
2023/12/27 12:20:28;;;;;;;13.82;6.55;;;;;;;;;;5035531;28;20119;-66
2023/12/27 12:22:56;;;;;;;7.85;4.80;;;;;;;;;;5035543;28;20041;-67
2023/12/27 12:25:24;;;;;;;6.57;4.47;;;8.70;99.90;;;;;;5035658;28;20487;-67
2023/12/27 12:27:50;;;;;;;7.45;3.95;;;8.70;99.90;;;;;;5035299;28;20037;-67
2023/12/27 12:30:16;;;;;;;6.43;4.10;;;8.80;99.90;;;;;;5035470;28;20033;-67
2023/12/27 12:32:41;;;;;;;5.68;3.85;;;8.70;99.90;;;;;;5034931;28;20084;-67
2023/12/27 12:35:08;;;;;;;6.28;3.78;;;8.90;99.90;;;;;;5035312;28;20087;-67
2023/12/27 12:37:35;;;;;;;5.72;3.65;;;8.90;99.90;;;;;;5035077;28;20087;-67
2023/12/27 12:40:02;;;;;;;7.00;3.85;;;;;;;;;;5035246;28;20033;-67
2023/12/27 12:42:29;;;;;;;5.10;3.30;;;;;;;;;;5035336;28;20040;-66